Aeroporto :
LOGIN :

Iscrizione | Disclaimer

   EN    FR    IT 

 










Sommario :    VFR   VFR Marginale   IFR   IFR Intensivo   IFR Molto Intensivo
Visibilità : 
Base nubi : 
>= 8 km
>= 3000ft
5 / 8 km
1000 / 3000 ft
1500m / 5 km
500 / 1000 ft
800 / 1500m
200 / 500 ft
< 800m
< 200 ft
Simboli :   Temporali  Nebbia  Neve Forte  Precipitazioni Forti  Vento > 20 kt
SIGMETs :   Varie  Temporali  Ghiacco  Turbolenza  Onda orograficha  Ceneri Vulcaniche






- Altitudine del aeroporto : 18 ft
- Codice IATA : AJA


LFKJ - Ajaccio

ULTIMO METAR :
  • 282300Z AUTO 04003KT 9999 BKN025 18/14 Q1015 NOSIG

METARs OBSOLETI :
  • 282230Z AUTO 03004KT 9999 FEW026 18/15 Q1015 NOSIG
  • 282200Z AUTO 05004KT 9999 SCT026 19/15 Q1015 NOSIG
  • 282130Z AUTO 02004KT 9999 OVC027 19/15 Q1015 NOSIG
  • 282100Z AUTO 04003KT 9999 OVC029 19/15 Q1015 NOSIG
  • 282030Z AUTO VRB02KT 9999 OVC028 19/15 Q1015 NOSIG
  • 282000Z AUTO VRB03KT 9999 BKN024 OVC029 20/15 Q1015 NOSIG
  • 281930Z AUTO VRB03KT 9999 OVC025 19/15 Q1015 NOSIG
  • 281900Z AUTO 20005KT 9999 FEW026 19/15 Q1014 NOSIG
  • 281830Z AUTO 23006KT CAVOK 20/15 Q1014 NOSIG

TAF TAF LFKJ
Valido dal 28 a 21 ore il 29 a 21 ore UTC


282000Z 2821/2921 05003KT CAVOK
BECMG 2908/2910 23010KT
BECMG 2919/2921 VRB03KT
TEMPO 2919/2921 2500 BR BKN010
ATIS : +33 4 95 23 59 85



MetMap, La meteo Aeronautica in un colpo d'occhio ! - Copyright ORBIFLY Dicembre 2007 - Disclaimer

ORBIFLY MET'MAP TEAM :

Programmazione e sviluppo : Alexandra Zaïnal
Concezione : Baudouin d'Aumeries
Supporto tecnico e logistico : Manuel Goepfert
Aiuto : Marc-Olivier Méhu
Aiuto per la traduzione : Arnaldo La Scala




FONTI E CREDITI :

   NOAA